Terminal Aerodrome Forecast
Issued by NWS Blacksburg, VA

Current Version | Previous Version | Graphics & Text | Print | Product List | Glossary On
Versions: 1 2 3 4 5 6 7 8 9 10 11 12 13 14 15 16 17 18 19 20 21 22 23 24 25 26 27 28 29 30 31 32 33 34 35 36 37 38 39 40 41 42 43
000
FTUS41 KRNK 191925 AAA
TAFBLF
TAF AMD
KBLF 191925Z 1919/2018 31008KT P6SM VCSH FEW022 BKN060
      TEMPO 1920/1924 4SM -TSRA BKN012CB
     FM200400 25004KT 5SM BR BKN020
     FM200800 24004KT 3SM BR OVC010
      TEMPO 2009/2012 1SM BR OVC004
     FM201200 26005KT P6SM VCSH BKN015=

USA.gov is the U.S. government's official web portal to all federal, state and local government web resources and services.